• Join FlightAware (Why Join?)
  • Login
  • US Flag 
08:15PM EST


 

Airport Tracker/Info


-or-


 

Live Flight TrackerFlight Track Log ✈ C-GHVM ✈ 04-Aug-2013 ✈ CAJ4 - CYPK

Flight Track Log - Related Links

Times and Time Zones

All times are in EDT time to prevent confusion due to time zone crossing. See the C-GHVM flight status page for this flight to view local times or setup timezone preferences in your user account.

Time Position Orientation Groundspeed Altitude Reporting Facility
EDT Latitude Longitude Course Direction KTS MPH feet Rate Location/Type
08:55PM 52.0333 -125.0000 141° Southeast 210 242 12,600  Level Vancouver Center
08:56PM 51.9833 -124.9333 141° Southeast 190 219 13,400 720 Climbing Vancouver Center
08:57PM 51.9500 -124.9167 163° South 190 219 14,100 720 Climbing Vancouver Center
08:58PM 51.8833 -124.8833 163° South 200 230 14,900 660 Climbing Vancouver Center
08:59PM 51.8333 -124.8500 158° South 200 230 15,500 660 Climbing Vancouver Center
09:00PM 51.7833 -124.8167 158° South 200 230 16,300 720 Climbing Vancouver Center
09:01PM 51.7333 -124.8000 168° South 200 230 17,000 660 Climbing Vancouver Center
09:02PM 51.6833 -124.7333 140° Southeast 200 230 17,700 600 Climbing Vancouver Center
09:03PM 51.6333 -124.7167 168° South 200 230 18,200 480 Climbing Vancouver Center
09:04PM 51.5667 -124.6833 163° South 200 230 18,700 480 Climbing Vancouver Center
09:05PM 51.5167 -124.6500 157° South 210 242 19,200 120 Climbing Vancouver Center
09:06PM 51.4667 -124.6333 168° South 220 253 19,000 -120 Descending Vancouver Center
09:07PM 51.4000 -124.6000 163° South 240 276 19,000  Level Vancouver Center
09:08PM 51.3333 -124.5667 163° South 240 276 19,000  Level Vancouver Center
09:09PM 51.2667 -124.5167 155° Southeast 240 276 19,000  Level Vancouver Center
09:10PM 51.2000 -124.4833 163° South 250 288 19,000  Level Vancouver Center
09:11PM 51.1333 -124.4667 171° South 250 288 19,000  Level Vancouver Center
09:12PM 51.0667 -124.4167 155° Southeast 250 288 19,000  Level Vancouver Center
09:13PM 51.0000 -124.3833 163° South 260 299 19,000  Level Vancouver Center
09:14PM 50.9333 -124.3500 163° South 260 299 19,000  Level Vancouver Center
09:15PM 50.8833 -124.3000 148° Southeast 250 288 19,000  Level Vancouver Center
09:16PM 50.8167 -124.2667 162° South 250 288 19,000  Level Vancouver Center
09:17PM 50.7500 -124.2500 171° South 250 288 19,000  Level Vancouver Center
09:18PM 50.6833 -124.2000 155° Southeast 240 276 19,000  Level Vancouver Center
09:19PM 50.6167 -124.1667 162° South 250 288 19,000  Level Vancouver Center
09:20PM 50.5500 -124.1333 162° South 240 276 19,000  Level Vancouver Center
09:21PM 50.4833 -124.0833 154° Southeast 250 288 19,000  Level Vancouver Center
09:22PM 50.4167 -124.0667 171° South 240 276 19,000  Level Vancouver Center
09:23PM 50.3667 -124.0333 157° South 250 288 19,000  Level Vancouver Center
09:24PM 50.3000 -123.9833 154° Southeast 250 288 19,000  Level Vancouver Center
09:25PM 50.2333 -123.9500 162° South 250 288 19,000  Level Vancouver Center
09:26PM 50.1667 -123.9333 171° South 250 288 19,000  Level Vancouver Center
09:27PM 50.1000 -123.9000 162° South 250 288 19,000  Level Vancouver Center
09:28PM 50.0333 -123.8500 154° Southeast 240 276 19,000 -300 Level Vancouver Center
09:29PM 49.9667 -123.8167 162° South 250 288 18,500 -720 Descending Vancouver Center
09:30PM 49.9000 -123.8000 171° South 250 288 17,600 -1,020 Descending Vancouver Center
09:31PM 49.8333 -123.7500 154° Southeast 250 288 16,500 -1,020 Descending Vancouver Center
09:32PM 49.7833 -123.7167 157° South 250 288 15,600 -960 Descending Vancouver Center
09:33PM 49.7167 -123.6667 154° Southeast 240 276 14,600 -1,020 Descending Vancouver Center
09:34PM 49.6500 -123.6167 154° Southeast 240 276 13,600 -1,020 Descending Vancouver Center
09:35PM 49.6000 -123.5667 147° Southeast 230 265 12,600 -1,020 Descending Vancouver Center
09:36PM 49.5500 -123.5500 168° South 230 265 11,600 -960 Descending Vancouver Center
09:37PM 49.4833 -123.4833 147° Southeast 230 265 10,700 -1,200 Descending Vancouver Center
09:38PM 49.4333 -123.4333 147° Southeast 220 253 9,200 -1,500 Descending Vancouver Center
09:39PM 49.3833 -123.4167 168° South 210 242 7,700 -1,500 Descending Vancouver Center
09:40PM 49.3333 -123.3667 147° Southeast 200 230 6,200 -1,500 Descending Vancouver Center
09:41PM 49.3000 -123.2833 122° Southeast 200 230 4,800 -1,080 Descending Vancouver Center
09:42PM 49.2667 -123.2333 136° Southeast 180 207 4,100 -420 Descending Vancouver Center
09:43PM 49.2500 -123.1833 117° Southeast 150 173 4,000 -180 Descending Vancouver Center
09:44PM 49.2500 -123.1333 90° East 150 173 3,800 -360 Descending Vancouver Center
09:45PM 49.2333 -123.0500 107° East 170 196 3,300 -480 Descending Vancouver Center
09:46PM 49.2167 -122.9833 111° Southeast 180 207 2,900 -300 Descending Vancouver Center
09:47PM 49.2167 -122.9000 90° East 170 196 2,700 -660 Descending Vancouver Center
09:48PM 49.2000 -122.8333 111° Southeast 160 184 1,600 -900 Descending Vancouver Center
09:49PM 49.2000 -122.8000 90° East 120 138 1,000 -600 Descending Vancouver Center
09:50PM 49.2000 -122.7333 90° East 120 138 400 -600 Descending Vancouver Center